Time;durP1;ratioP1;P1;durP2;ratioP2;P2;SDS_P1;SDS_P2;PMS_P1;PMS_P2;Temp;Humidity;BMP_temperature;BMP_pressure;BME280_temperature;BME280_humidity;BME280_pressure;Samples;Min_cycle;Max_cycle;Signal;HPM_P1;HPM_P2
2022/01/22 05:25:20;;;;;;;10.40;3.53;;;2.80;99.90;;;;;;5515951;23;20443;-77
2022/01/22 05:27:59;;;;;;;8.52;4.07;;;2.80;99.90;;;;;;4890956;29;20049;-77
2022/01/22 05:30:52;;;;;;;8.50;3.35;;;2.80;99.90;;;;;;4889903;29;20438;-76
2022/01/22 05:36:54;;;;;;;8.77;4.25;;;2.80;99.90;;;;;;4892292;29;20053;-79
2022/01/22 05:39:04;;;;;;;7.30;4.10;;;2.80;99.90;;;;;;4890321;29;20064;-79
2022/01/22 05:41:33;;;;;;;7.40;3.53;;;2.80;99.90;;;;;;4883208;29;20508;-78
2022/01/22 05:44:00;;;;;;;9.05;3.53;;;2.90;99.90;;;;;;4891331;29;20586;-78
2022/01/22 05:46:27;;;;;;;7.38;4.25;;;2.90;99.90;;;;;;4894890;29;20054;-79
2022/01/22 05:48:54;;;;;;;8.68;4.10;;;2.90;99.90;;;;;;4897212;29;20128;-79
2022/01/22 05:51:22;;;;;;;6.72;3.78;;;2.90;99.90;;;;;;4896141;29;20144;-77
2022/01/22 05:54:12;;;;;;;11.27;4.55;;;2.90;99.90;;;;;;4897208;29;20056;-77
2022/01/22 05:59:38;;;;;;;7.88;4.30;;;2.90;99.90;;;;;;4896256;29;20060;-77
2022/01/22 06:02:06;;;;;;;10.00;4.53;;;2.90;99.90;;;;;;4896396;29;20135;-77
2022/01/22 06:04:34;;;;;;;10.13;4.10;;;2.90;99.90;;;;;;4890717;29;20414;-79
2022/01/22 06:07:02;;;;;;;9.90;4.13;;;2.90;99.90;;;;;;4889704;29;20132;-76
2022/01/22 06:09:31;;;;;;;8.05;4.70;;;2.90;99.90;;;;;;4896478;29;20051;-77
2022/01/22 06:12:15;;;;;;;10.10;4.97;;;3.00;99.90;;;;;;4896385;29;20052;-78
2022/01/22 06:14:43;;;;;;;9.00;4.78;;;2.90;99.90;;;;;;4894280;29;20044;-77
2022/01/22 06:17:10;;;;;;;9.63;5.10;;;2.90;99.90;;;;;;4896261;29;20044;-79
2022/01/22 06:19:37;;;;;;;12.88;4.82;;;2.90;99.90;;;;;;4897172;29;20060;-77
2022/01/22 06:22:04;;;;;;;10.15;4.95;;;2.90;99.90;;;;;;4896374;29;20410;-76
2022/01/22 06:24:32;;;;;;;13.65;5.55;;;3.00;99.90;;;;;;4889587;29;20128;-78
2022/01/22 06:27:00;;;;;;;11.13;5.32;;;3.00;99.90;;;;;;4896834;29;20056;-76
2022/01/22 06:29:27;;;;;;;9.70;5.20;;;2.90;99.90;;;;;;4896945;29;20139;-79
2022/01/22 06:31:54;;;;;;;10.98;5.22;;;3.00;99.90;;;;;;4891083;29;20117;-76
2022/01/22 06:34:21;;;;;;;11.13;5.55;;;3.00;99.90;;;;;;4893928;29;20143;-77
2022/01/22 06:36:48;;;;;;;11.98;5.78;;;3.00;99.90;;;;;;4886325;29;20049;-75
2022/01/22 06:39:17;;;;;;;13.25;6.03;;;2.90;99.90;;;;;;4893127;29;20513;-78
2022/01/22 06:41:44;;;;;;;11.63;5.90;;;2.90;99.90;;;;;;4898360;29;20105;-77
2022/01/22 06:44:14;;;;;;;11.55;5.85;;;3.00;99.90;;;;;;4892114;29;20088;-79
2022/01/22 06:46:43;;;;;;;11.15;6.20;;;2.90;99.90;;;;;;4891939;29;20159;-79
2022/01/22 06:49:11;;;;;;;13.43;6.15;;;3.00;99.90;;;;;;4898519;29;20131;-78
2022/01/22 06:51:38;;;;;;;13.32;5.95;;;3.00;99.90;;;;;;4900873;29;20060;-79
2022/01/22 06:54:09;;;;;;;12.00;6.20;;;3.00;99.90;;;;;;4903385;29;20458;-76
2022/01/22 06:56:37;;;;;;;13.57;6.55;;;3.00;99.90;;;;;;4901399;29;20044;-77
2022/01/22 06:59:06;;;;;;;12.43;6.13;;;3.00;99.90;;;;;;4899977;29;20044;-78
2022/01/22 07:01:34;;;;;;;13.50;7.00;;;3.00;99.90;;;;;;4894129;29;20048;-79
2022/01/22 07:04:02;;;;;;;13.38;6.60;;;3.00;99.90;;;;;;4900456;29;20044;-79
2022/01/22 07:06:31;;;;;;;12.85;6.78;;;3.00;99.90;;;;;;4899292;29;20467;-80
2022/01/22 07:08:58;;;;;;;14.52;7.05;;;3.00;99.90;;;;;;4900282;29;20542;-80
2022/01/22 07:11:25;;;;;;;12.13;6.80;;;3.00;99.90;;;;;;4899939;29;20419;-81
2022/01/22 07:13:52;;;;;;;16.73;7.63;;;3.00;99.90;;;;;;4898621;29;20079;-80
2022/01/22 07:16:19;;;;;;;13.15;6.88;;;3.00;99.90;;;;;;4898116;29;20059;-80
2022/01/22 07:18:48;;;;;;;13.90;6.97;;;3.00;99.90;;;;;;4895368;29;20041;-78
2022/01/22 07:21:18;;;;;;;17.13;7.97;;;3.00;99.90;;;;;;4895610;29;20131;-81
2022/01/22 07:26:30;;;;;;;17.63;7.78;;;2.90;99.90;;;;;;4896696;29;20055;-77
2022/01/22 07:28:57;;;;;;;14.35;6.80;;;3.00;99.90;;;;;;4894218;29;20124;-79
2022/01/22 07:31:26;;;;;;;15.80;7.28;;;3.00;99.90;;;;;;4888653;29;20558;-77
2022/01/22 07:33:55;;;;;;;15.25;7.75;;;3.00;99.90;;;;;;4885742;29;20143;-78
2022/01/22 07:36:23;;;;;;;16.25;8.02;;;3.00;99.90;;;;;;4890408;29;20140;-75
2022/01/22 07:38:50;;;;;;;15.85;7.80;;;3.00;99.90;;;;;;4898995;29;20080;-78
2022/01/22 07:41:18;;;;;;;15.35;7.93;;;3.00;99.90;;;;;;4898449;29;20112;-79
2022/01/22 07:43:45;;;;;;;17.25;7.97;;;3.00;99.90;;;;;;4896523;29;20045;-79
2022/01/22 07:46:12;;;;;;;16.30;7.70;;;3.00;99.90;;;;;;4899178;29;20120;-79
2022/01/22 07:48:39;;;;;;;13.93;7.68;;;3.00;99.90;;;;;;4898895;29;20091;-78
2022/01/22 07:51:08;;;;;;;16.17;7.80;;;3.00;99.90;;;;;;4894192;29;20554;-77
2022/01/22 07:53:35;;;;;;;18.30;8.73;;;3.00;99.90;;;;;;4892996;29;20055;-79
2022/01/22 07:56:02;;;;;;;19.38;9.35;;;3.00;99.90;;;;;;4895850;29;20128;-78
2022/01/22 07:58:29;;;;;;;15.95;8.63;;;3.00;99.90;;;;;;4898765;29;20047;-79
2022/01/22 08:00:57;;;;;;;17.00;8.38;;;3.00;99.90;;;;;;4897912;29;20487;-79
2022/01/22 08:03:27;;;;;;;14.77;8.05;;;3.00;99.90;;;;;;4898278;29;20574;-76
2022/01/22 08:05:54;;;;;;;20.45;9.57;;;3.00;99.90;;;;;;4898903;29;20045;-78
2022/01/22 08:08:22;;;;;;;18.95;8.98;;;3.10;99.90;;;;;;4898063;29;20041;-77
2022/01/22 08:10:49;;;;;;;17.23;8.73;;;3.10;99.90;;;;;;4885678;29;20052;-78
2022/01/22 08:13:18;;;;;;;18.17;9.13;;;3.00;99.90;;;;;;4895805;29;20049;-77
2022/01/22 08:15:46;;;;;;;18.65;9.52;;;3.10;99.90;;;;;;4888586;29;20052;-79
2022/01/22 08:18:13;;;;;;;19.73;9.40;;;3.10;99.90;;;;;;4889671;29;20447;-78
2022/01/22 08:20:40;;;;;;;23.63;10.07;;;3.10;99.90;;;;;;4894995;29;20151;-78
2022/01/22 08:23:07;;;;;;;18.20;9.32;;;3.10;99.90;;;;;;4890868;29;20132;-79
2022/01/22 08:25:38;;;;;;;20.73;9.35;;;3.10;99.90;;;;;;4891312;29;20129;-76
2022/01/22 08:30:54;;;;;;;19.33;9.05;;;3.10;99.90;;;;;;4890970;29;20064;-76
2022/01/22 08:35:52;;;;;;;19.58;9.52;;;3.10;99.90;;;;;;4896558;29;20519;-77
2022/01/22 08:36:18;;;;;;;18.83;9.48;;;3.10;99.90;;;;;;4893443;29;20048;-76
2022/01/22 08:38:45;;;;;;;18.70;9.35;;;3.10;99.90;;;;;;4893286;29;20501;-76
2022/01/22 08:41:14;;;;;;;17.15;9.25;;;3.10;99.90;;;;;;4897489;29;20147;-79
2022/01/22 08:43:41;;;;;;;24.67;10.07;;;3.10;99.90;;;;;;4898022;29;20554;-78
2022/01/22 08:46:08;;;;;;;22.92;10.73;;;3.10;99.90;;;;;;4897302;29;20050;-79
2022/01/22 08:48:35;;;;;;;21.13;10.90;;;3.10;99.90;;;;;;4896526;29;20132;-76
2022/01/22 08:51:02;;;;;;;21.45;11.07;;;3.10;99.90;;;;;;4884116;29;20148;-77
2022/01/22 08:53:32;;;;;;;19.98;10.93;;;3.10;99.90;;;;;;4898516;29;20164;-77
2022/01/22 08:56:00;;;;;;;21.45;10.65;;;3.10;99.90;;;;;;4896031;29;20044;-76
2022/01/22 08:58:28;;;;;;;20.05;10.43;;;3.10;99.90;;;;;;4897772;29;20076;-78
2022/01/22 09:00:56;;;;;;;21.25;11.05;;;3.10;99.90;;;;;;4897636;29;20135;-78
2022/01/22 09:03:24;;;;;;;23.80;11.57;;;3.20;99.90;;;;;;4896251;29;20132;-76
2022/01/22 09:05:52;;;;;;;21.67;11.02;;;3.20;99.90;;;;;;4897374;29;20056;-78
2022/01/22 09:08:20;;;;;;;21.67;10.63;;;3.20;99.90;;;;;;4898844;29;20087;-78
2022/01/22 09:10:47;;;;;;;23.75;11.15;;;3.20;99.90;;;;;;4896841;29;20047;-79
2022/01/22 09:13:14;;;;;;;20.25;10.63;;;3.20;99.90;;;;;;4895849;29;20187;-79
2022/01/22 09:15:43;;;;;;;23.30;10.35;;;3.20;99.90;;;;;;4897365;29;20080;-79
2022/01/22 09:18:10;;;;;;;20.63;10.82;;;3.20;99.90;;;;;;4892689;29;20055;-79
2022/01/22 09:21:01;;;;;;;23.02;11.40;;;3.20;99.90;;;;;;4892292;29;20455;-79
2022/01/22 09:23:29;;;;;;;24.38;10.30;;;3.20;99.90;;;;;;4894320;29;20136;-78
2022/01/22 09:25:57;;;;;;;25.77;11.82;;;3.20;99.90;;;;;;4893053;29;20057;-79
2022/01/22 09:28:24;;;;;;;22.52;11.55;;;3.20;99.90;;;;;;4892506;29;20131;-76
2022/01/22 09:30:54;;;;;;;23.30;11.40;;;3.20;99.90;;;;;;4889917;29;20494;-75
2022/01/22 09:33:21;;;;;;;21.45;11.00;;;3.20;99.90;;;;;;4898471;29;20128;-75
2022/01/22 09:35:48;;;;;;;20.80;10.88;;;3.20;99.90;;;;;;4896109;29;20045;-79
2022/01/22 09:38:15;;;;;;;23.63;10.63;;;3.20;99.90;;;;;;4898373;29;20095;-75
2022/01/22 09:40:42;;;;;;;21.73;11.07;;;3.20;99.90;;;;;;4896995;29;20055;-76
2022/01/22 09:43:10;;;;;;;23.38;11.57;;;3.20;99.90;;;;;;4898314;29;20048;-75
2022/01/22 09:45:37;;;;;;;22.80;10.88;;;3.20;99.90;;;;;;4891304;29;20132;-76
2022/01/22 09:48:06;;;;;;;20.45;11.02;;;3.30;99.90;;;;;;4890101;29;20052;-75
2022/01/22 09:50:35;;;;;;;21.70;11.02;;;3.30;99.90;;;;;;4887012;29;20082;-76
2022/01/22 09:53:04;;;;;;;24.48;11.50;;;3.30;99.90;;;;;;4886683;29;20084;-77
2022/01/22 09:55:31;;;;;;;21.85;11.30;;;3.30;99.90;;;;;;4889783;29;20413;-76
2022/01/22 09:57:59;;;;;;;24.05;11.82;;;3.30;99.90;;;;;;4888916;29;20469;-77
2022/01/22 10:00:28;;;;;;;24.58;12.32;;;3.30;99.90;;;;;;4880163;29;20392;-76
2022/01/22 10:02:57;;;;;;;25.15;12.15;;;3.30;99.90;;;;;;4887344;29;20136;-75
2022/01/22 10:05:35;;;;;;;21.48;11.35;;;3.30;99.90;;;;;;4888615;29;20473;-76
2022/01/22 10:08:36;;;;;;;24.27;10.73;;;3.40;99.90;;;;;;4896149;29;20080;-76
2022/01/22 10:11:04;;;;;;;22.77;10.75;;;3.40;99.90;;;;;;4897825;29;20156;-76
2022/01/22 10:13:40;;;;;;;24.40;11.52;;;3.40;99.90;;;;;;4893027;29;20132;-75
2022/01/22 10:16:22;;;;;;;22.73;11.45;;;3.50;99.90;;;;;;4893006;29;20040;-78
2022/01/22 10:19:09;;;;;;;20.65;11.38;;;3.50;99.90;;;;;;4896303;29;20119;-76
2022/01/22 10:21:41;;;;;;;24.55;11.27;;;3.50;99.90;;;;;;4880738;29;20414;-76
2022/01/22 10:24:33;;;;;;;21.88;10.45;;;3.50;99.90;;;;;;4885816;29;20068;-75
2022/01/22 10:27:31;;;;;;;22.17;10.73;;;3.50;99.90;;;;;;4892098;29;20057;-77
2022/01/22 10:30:03;;;;;;;22.65;10.48;;;3.50;99.90;;;;;;4871002;29;20076;-75
2022/01/22 10:32:43;;;;;;;21.88;10.93;;;3.50;99.90;;;;;;4895109;29;20045;-75
2022/01/22 10:35:15;;;;;;;21.40;11.02;;;3.60;99.90;;;;;;4890634;29;20075;-75
2022/01/22 10:37:45;;;;;;;20.88;10.45;;;3.60;99.90;;;;;;4888714;29;20053;-75
2022/01/22 10:40:27;;;;;;;25.25;10.77;;;3.60;99.90;;;;;;4887838;29;20084;-76
2022/01/22 10:43:16;;;;;;;20.73;11.15;;;3.60;99.90;;;;;;4886233;29;20044;-75
2022/01/22 10:46:07;;;;;;;24.42;11.05;;;3.70;99.90;;;;;;4885040;29;20076;-75
2022/01/22 10:48:36;;;;;;;20.05;10.07;;;3.70;99.90;;;;;;4883769;29;20147;-74
2022/01/22 10:51:09;;;;;;;23.20;10.57;;;3.70;99.90;;;;;;4891672;29;20048;-74
2022/01/22 10:53:44;;;;;;;19.98;11.10;;;3.70;99.90;;;;;;4883079;29;20049;-75
2022/01/22 10:56:14;;;;;;;21.25;11.00;;;3.80;99.90;;;;;;4888809;29;20470;-76
2022/01/22 10:59:01;;;;;;;21.90;10.30;;;3.80;99.90;;;;;;4886272;29;20087;-74
2022/01/22 11:01:31;;;;;;;20.65;11.50;;;3.80;99.90;;;;;;4886446;29;20080;-80
2022/01/22 11:04:13;;;;;;;21.90;11.10;;;3.80;99.90;;;;;;4889682;29;20131;-77
2022/01/22 11:06:47;;;;;;;21.05;11.15;;;3.80;99.90;;;;;;4884374;29;20124;-77
2022/01/22 11:09:16;;;;;;;22.42;11.35;;;3.80;99.90;;;;;;4888748;29;20053;-77
2022/01/22 11:11:45;;;;;;;24.75;11.73;;;3.80;99.90;;;;;;4886517;29;20073;-79
2022/01/22 11:14:13;;;;;;;21.15;11.30;;;3.90;99.90;;;;;;4887551;29;20056;-76
2022/01/22 11:16:43;;;;;;;23.90;11.73;;;3.90;99.90;;;;;;4886221;29;20140;-76
2022/01/22 11:19:11;;;;;;;21.25;11.68;;;3.90;99.90;;;;;;4886577;29;20132;-76
2022/01/22 11:21:44;;;;;;;23.23;11.27;;;3.90;99.90;;;;;;4885973;29;20140;-76
2022/01/22 11:24:13;;;;;;;20.20;11.02;;;3.90;99.90;;;;;;4886631;29;20052;-74
2022/01/22 11:26:45;;;;;;;23.55;11.73;;;3.90;99.90;;;;;;4890085;29;20059;-80
2022/01/22 11:29:16;;;;;;;22.85;11.40;;;3.90;99.90;;;;;;4901573;29;20054;-77
2022/01/22 11:31:47;;;;;;;19.27;10.45;;;3.90;99.90;;;;;;4901831;29;20056;-74
2022/01/22 11:34:17;;;;;;;24.05;10.73;;;3.90;99.90;;;;;;4907093;29;20059;-75
2022/01/22 11:36:54;;;;;;;20.92;11.25;;;3.90;99.90;;;;;;4907708;29;20048;-78
2022/01/22 11:39:24;;;;;;;23.23;11.15;;;3.90;99.90;;;;;;4909958;29;20052;-73
2022/01/22 11:41:56;;;;;;;23.35;10.90;;;4.00;99.90;;;;;;4911190;29;20056;-77
2022/01/22 11:44:34;;;;;;;22.58;11.27;;;4.00;99.90;;;;;;4905135;29;20112;-77
2022/01/22 11:47:11;;;;;;;24.27;11.55;;;4.00;99.90;;;;;;4910243;29;20048;-76
2022/01/22 11:49:41;;;;;;;21.33;11.82;;;4.00;99.90;;;;;;4914296;29;20135;-76
2022/01/22 11:52:27;;;;;;;28.80;11.70;;;4.00;99.90;;;;;;4900827;29;20055;-79
2022/01/22 11:54:59;;;;;;;20.45;10.52;;;4.00;99.90;;;;;;4909216;29;20131;-80
2022/01/22 11:57:30;;;;;;;22.40;11.52;;;4.00;99.90;;;;;;4910115;29;20139;-78
2022/01/22 12:00:30;;;;;;;22.45;11.30;;;4.10;99.90;;;;;;4905416;29;20131;-79
2022/01/22 12:03:20;;;;;;;26.35;12.10;;;4.10;99.90;;;;;;4838164;29;20522;-78
2022/01/22 12:06:10;;;;;;;20.75;11.50;;;4.10;99.90;;;;;;4841631;29;20053;-78
2022/01/22 12:09:10;;;;;;;24.60;11.77;;;4.10;99.90;;;;;;4892528;29;20048;-79
2022/01/22 12:15:05;;;;;;;19.15;10.93;;;4.10;99.90;;;;;;4910295;29;20059;-76
2022/01/22 12:18:08;;;;;;;22.98;12.15;;;4.10;99.90;;;;;;4894245;29;20045;-76
2022/01/22 12:23:54;;;;;;;21.85;11.45;;;4.10;99.90;;;;;;4887871;29;20048;-76
2022/01/22 12:26:38;;;;;;;25.98;12.25;;;4.10;99.90;;;;;;4908809;29;20147;-76
2022/01/22 12:29:32;;;;;;;21.83;11.20;;;4.10;99.90;;;;;;4903236;29;20055;-77
2022/01/22 12:32:20;;;;;;;23.25;11.88;;;4.10;99.90;;;;;;4916794;29;20127;-74
2022/01/22 12:35:14;;;;;;;21.98;11.60;;;4.10;99.90;;;;;;4912758;29;20402;-74
2022/01/22 12:40:31;;;;;;;;;;;4.10;99.90;;;;;;4906757;29;20554;-78
2022/01/22 12:43:11;;;;;;;22.67;10.90;;;4.10;99.90;;;;;;4906650;29;19923;-79
2022/01/22 12:45:41;;;;;;;24.88;12.25;;;4.00;99.90;;;;;;4905935;29;20124;-79
2022/01/22 12:48:14;;;;;;;21.80;11.13;;;4.00;99.90;;;;;;4906881;29;20055;-79
2022/01/22 12:50:41;;;;;;;24.02;11.38;;;4.00;99.90;;;;;;4911471;29;20063;-75
2022/01/22 12:53:13;;;;;;;20.08;11.13;;;4.00;99.90;;;;;;4914688;29;20132;-75
2022/01/22 12:56:03;;;;;;;20.95;11.07;;;4.00;99.90;;;;;;4904712;29;20542;-77
2022/01/22 12:58:32;;;;;;;22.80;11.82;;;4.00;99.90;;;;;;4913467;29;20052;-74
2022/01/22 13:01:20;;;;;;;22.48;11.68;;;4.10;99.90;;;;;;4912253;29;20048;-79
2022/01/22 13:03:51;;;;;;;22.20;11.80;;;4.10;99.90;;;;;;4904539;29;20124;-75
2022/01/22 13:06:19;;;;;;;23.13;11.45;;;4.00;99.90;;;;;;4907628;29;20048;-79
2022/01/22 13:08:46;;;;;;;20.15;10.77;;;4.10;99.90;;;;;;4906621;29;20127;-77
2022/01/22 13:11:18;;;;;;;22.98;11.48;;;4.10;99.90;;;;;;4915157;29;20135;-77
2022/01/22 13:13:50;;;;;;;21.80;12.27;;;4.10;99.90;;;;;;4906238;29;20131;-79
2022/01/22 13:16:18;;;;;;;23.10;11.93;;;4.10;99.90;;;;;;4906214;29;20059;-75
2022/01/22 13:18:51;;;;;;;23.75;11.80;;;4.10;99.90;;;;;;4905874;29;20131;-78
2022/01/22 13:21:21;;;;;;;21.05;10.68;;;4.10;99.90;;;;;;4906648;29;20048;-79
2022/01/22 13:24:02;;;;;;;20.30;11.52;;;4.10;99.90;;;;;;4911050;29;20056;-74
2022/01/22 13:26:46;;;;;;;20.13;11.20;;;4.10;99.90;;;;;;4912729;29;20084;-75
2022/01/22 13:29:19;;;;;;;22.63;11.07;;;4.20;99.90;;;;;;4906570;29;20064;-75
2022/01/22 13:32:01;;;;;;;18.45;10.23;;;4.20;99.90;;;;;;4908697;29;20135;-74
2022/01/22 13:34:40;;;;;;;23.13;11.07;;;4.20;99.90;;;;;;4913069;29;20056;-74
2022/01/22 13:47:40;;;;;;;19.40;10.13;;;4.30;99.90;;;;;;4906037;29;20055;-78
2022/01/22 13:48:11;;;;;;;19.85;10.00;;;4.30;99.90;;;;;;4905974;29;20057;-79
2022/01/22 13:50:40;;;;;;;21.52;10.88;;;4.30;99.90;;;;;;4908108;29;20151;-80
2022/01/22 13:53:07;;;;;;;20.13;10.30;;;4.30;99.90;;;;;;4907499;29;20569;-78
2022/01/22 13:55:34;;;;;;;16.25;9.85;;;4.30;99.90;;;;;;4905404;29;20135;-80
2022/01/22 13:58:02;;;;;;;22.42;10.80;;;4.40;99.90;;;;;;4904826;29;20591;-78
2022/01/22 14:00:29;;;;;;;20.25;10.27;;;4.40;99.90;;;;;;4912317;29;20062;-76
2022/01/22 14:03:08;;;;;;;20.13;10.77;;;4.40;99.90;;;;;;4904462;29;20557;-79
2022/01/22 14:05:35;;;;;;;21.27;10.93;;;4.40;99.90;;;;;;4902033;29;20048;-79
2022/01/22 14:08:07;;;;;;;20.52;10.80;;;4.40;99.90;;;;;;4891636;29;20073;-80
2022/01/22 14:10:35;;;;;;;20.50;10.77;;;4.40;99.90;;;;;;4902056;29;20040;-75
2022/01/22 14:13:08;;;;;;;18.58;10.00;;;4.40;99.90;;;;;;4907962;29;20066;-80
2022/01/22 14:15:40;;;;;;;22.23;10.07;;;4.40;99.90;;;;;;4905615;29;20049;-79
2022/01/22 14:18:15;;;;;;;20.33;10.68;;;4.40;99.90;;;;;;4905340;29;20045;-79
2022/01/22 14:20:46;;;;;;;20.73;10.70;;;4.40;99.90;;;;;;4910563;29;20056;-79
2022/01/22 14:23:17;;;;;;;22.65;10.20;;;4.40;99.90;;;;;;4906717;29;20143;-78
2022/01/22 14:25:58;;;;;;;18.73;10.38;;;4.40;99.90;;;;;;4905048;29;20059;-81
2022/01/22 14:28:40;;;;;;;22.75;12.27;;;4.40;99.90;;;;;;4908009;29;20062;-80
2022/01/22 14:31:27;;;;;;;32.35;15.48;;;4.40;99.90;;;;;;4908796;29;20056;-78
2022/01/22 14:33:55;;;;;;;21.65;11.98;;;4.50;99.90;;;;;;4904139;29;20525;-79
2022/01/22 14:36:26;;;;;;;19.95;10.27;;;4.50;99.90;;;;;;4905458;29;20111;-76
2022/01/22 14:39:14;;;;;;;18.85;9.57;;;4.40;99.90;;;;;;4905115;29;20045;-78
2022/01/22 14:44:40;;;;;;;19.08;10.90;;;4.50;99.90;;;;;;4902305;29;20123;-77
2022/01/22 14:47:13;;;;;;;17.40;10.23;;;4.50;99.90;;;;;;4907994;29;20091;-78
2022/01/22 14:49:43;;;;;;;22.00;10.13;;;4.50;99.90;;;;;;4903850;29;20409;-76
2022/01/22 14:52:13;;;;;;;18.15;9.48;;;4.50;99.90;;;;;;4904909;29;20138;-78
2022/01/22 14:54:45;;;;;;;22.33;10.70;;;4.50;99.90;;;;;;4905115;29;20051;-77
2022/01/22 14:57:15;;;;;;;20.00;11.05;;;4.50;99.90;;;;;;4905563;29;20135;-79
2022/01/22 14:59:43;;;;;;;21.38;10.35;;;4.50;99.90;;;;;;4904644;29;20052;-79
2022/01/22 15:02:13;;;;;;;17.23;10.65;;;4.50;99.90;;;;;;4907467;29;20136;-77
2022/01/22 15:04:41;;;;;;;20.23;10.32;;;4.50;99.90;;;;;;4911925;29;20478;-77
2022/01/22 15:07:12;;;;;;;18.92;10.48;;;4.50;99.90;;;;;;4911124;29;20501;-78
2022/01/22 15:09:42;;;;;;;20.02;10.75;;;4.50;99.90;;;;;;4902497;29;20063;-80
2022/01/22 15:12:10;;;;;;;19.15;10.77;;;4.60;99.90;;;;;;4892227;29;20127;-79
2022/01/22 15:14:40;;;;;;;22.48;11.55;;;4.60;99.90;;;;;;4912114;29;20123;-78
2022/01/22 15:19:51;;;;;;;21.02;10.13;;;4.60;99.90;;;;;;4910457;29;20055;-79
2022/01/22 15:22:19;;;;;;;17.83;10.48;;;4.60;99.90;;;;;;4909379;29;20072;-79
2022/01/22 15:24:52;;;;;;;18.52;11.07;;;4.60;99.90;;;;;;4908092;29;20048;-78
2022/01/22 15:27:21;;;;;;;26.30;12.85;;;4.60;99.90;;;;;;4910254;29;20064;-80
2022/01/22 15:29:57;;;;;;;23.27;13.13;;;4.70;99.90;;;;;;4907018;29;20127;-78
2022/01/22 15:32:43;;;;;;;24.42;13.23;;;4.70;99.90;;;;;;4910422;29;20045;-78
2022/01/22 15:35:15;;;;;;;21.98;11.32;;;4.70;99.90;;;;;;4896326;29;20044;-78
2022/01/22 15:37:47;;;;;;;19.90;10.15;;;4.70;99.90;;;;;;4908794;29;20048;-77
2022/01/22 15:40:17;;;;;;;20.48;11.50;;;4.70;99.90;;;;;;4912419;29;20052;-78
2022/01/22 15:42:45;;;;;;;20.33;11.38;;;4.80;99.90;;;;;;4908262;29;20048;-79
2022/01/22 15:45:13;;;;;;;22.77;11.90;;;4.80;99.90;;;;;;4908105;29;20574;-77
2022/01/22 15:47:40;;;;;;;18.60;10.63;;;4.80;99.90;;;;;;4908119;29;20127;-79
2022/01/22 15:50:08;;;;;;;19.13;10.77;;;4.80;99.90;;;;;;4901185;29;20076;-78
2022/01/22 15:52:35;;;;;;;16.35;9.60;;;4.70;99.90;;;;;;4907254;29;20131;-81
2022/01/22 15:55:08;;;;;;;18.58;9.98;;;4.70;99.90;;;;;;4908218;29;20131;-81
2022/01/22 15:57:40;;;;;;;18.08;10.32;;;4.70;99.90;;;;;;4901508;29;20054;-77
2022/01/22 16:00:10;;;;;;;18.55;10.50;;;4.70;99.90;;;;;;4909562;29;20072;-78
2022/01/22 16:02:37;;;;;;;14.27;9.18;;;4.70;99.90;;;;;;4911134;29;20107;-78
2022/01/22 16:05:06;;;;;;;15.45;9.20;;;4.70;99.90;;;;;;4886647;29;20490;-78
2022/01/22 16:07:33;;;;;;;15.80;9.40;;;4.70;99.90;;;;;;4907644;29;20124;-79
2022/01/22 16:10:03;;;;;;;14.80;8.52;;;4.70;99.90;;;;;;4907255;29;20132;-81
2022/01/22 16:12:31;;;;;;;14.05;7.85;;;4.70;99.90;;;;;;4898355;29;20044;-80
2022/01/22 16:15:00;;;;;;;14.63;8.07;;;4.70;99.90;;;;;;4905958;29;20052;-78
2022/01/22 16:17:30;;;;;;;12.32;6.82;;;4.70;99.90;;;;;;4909850;29;20048;-79
2022/01/22 16:19:58;;;;;;;11.07;6.55;;;4.70;99.90;;;;;;4910712;29;20129;-80
2022/01/22 16:22:27;;;;;;;12.68;7.05;;;4.70;99.90;;;;;;4890264;29;20414;-78
2022/01/22 16:24:56;;;;;;;22.83;11.95;;;4.70;99.90;;;;;;4907156;29;20082;-82
2022/01/22 16:27:25;;;;;;;45.63;20.40;;;4.70;99.90;;;;;;4909285;29;20049;-81
2022/01/22 16:29:54;;;;;;;27.25;13.73;;;4.70;99.90;;;;;;4910051;29;20040;-81
2022/01/22 16:32:25;;;;;;;13.95;8.10;;;4.70;99.90;;;;;;4908045;29;20075;-77
2022/01/22 16:34:53;;;;;;;13.70;6.80;;;4.70;99.90;;;;;;4907294;29;20444;-77
2022/01/22 16:37:21;;;;;;;13.85;6.63;;;4.70;99.90;;;;;;4885887;29;20046;-79
2022/01/22 16:39:50;;;;;;;13.48;6.72;;;4.70;99.90;;;;;;4913090;29;20044;-76
2022/01/22 16:42:18;;;;;;;12.48;7.45;;;4.70;99.90;;;;;;4908599;29;20048;-77
2022/01/22 16:45:03;;;;;;;12.73;7.93;;;4.80;99.90;;;;;;4915629;29;20048;-76
2022/01/22 16:53:47;;;;;;;16.85;9.18;;;4.80;99.90;;;;;;4916409;29;20083;-78
2022/01/22 16:56:07;;;;;;;13.80;8.23;;;4.80;99.90;;;;;;4913765;29;20055;-75
2022/01/22 16:58:44;;;;;;;14.52;8.25;;;4.80;99.90;;;;;;4909201;29;20040;-77
2022/01/22 17:01:12;;;;;;;15.05;8.05;;;4.80;99.90;;;;;;4913155;29;20059;-77
2022/01/22 17:03:40;;;;;;;14.50;7.88;;;4.80;99.90;;;;;;4910354;29;20044;-76
2022/01/22 17:06:10;;;;;;;15.05;8.25;;;4.80;99.90;;;;;;4911499;29;20075;-75
2022/01/22 17:08:38;;;;;;;13.77;8.35;;;4.80;99.90;;;;;;4912335;29;20073;-77
2022/01/22 17:11:10;;;;;;;14.57;7.88;;;4.80;99.90;;;;;;4909513;29;20044;-79
2022/01/22 17:16:21;;;;;;;;;;;4.70;99.90;;;;;;4910292;29;20123;-75
2022/01/22 17:18:50;;;;;;;13.48;7.57;;;4.70;99.90;;;;;;4911314;29;20350;-74
2022/01/22 17:21:19;;;;;;;12.23;6.93;;;4.70;99.90;;;;;;4907815;29;20052;-75
2022/01/22 17:23:49;;;;;;;12.60;6.97;;;4.70;99.90;;;;;;4910024;29;20057;-76
2022/01/22 17:26:17;;;;;;;12.20;7.25;;;4.70;99.90;;;;;;4903606;29;20059;-76
2022/01/22 17:28:44;;;;;;;11.25;6.82;;;4.70;99.90;;;;;;4918784;29;20044;-75
2022/01/22 17:31:12;;;;;;;13.30;7.55;;;4.70;99.90;;;;;;4912928;29;20044;-74
2022/01/22 17:33:40;;;;;;;13.48;8.35;;;4.70;99.90;;;;;;4916105;29;20050;-73
2022/01/22 17:36:08;;;;;;;11.77;7.20;;;4.60;99.90;;;;;;4909527;29;20052;-76
2022/01/22 17:38:35;;;;;;;10.35;6.70;;;4.60;99.90;;;;;;4913281;29;20125;-75
2022/01/22 17:41:06;;;;;;;13.35;8.00;;;4.60;99.90;;;;;;4908814;29;20072;-74
2022/01/22 17:43:34;;;;;;;12.13;7.38;;;4.60;99.90;;;;;;4911803;29;20056;-75
2022/01/22 17:46:03;;;;;;;14.23;8.07;;;4.60;99.90;;;;;;4912421;29;20123;-75
2022/01/22 17:48:32;;;;;;;13.05;7.95;;;4.50;99.90;;;;;;4915808;29;20129;-77
2022/01/22 17:51:01;;;;;;;13.95;7.68;;;4.50;99.90;;;;;;4914784;29;20048;-74
2022/01/22 17:53:31;;;;;;;13.68;8.02;;;4.50;99.90;;;;;;4915055;29;20125;-78
2022/01/22 17:55:59;;;;;;;13.32;8.35;;;4.40;99.90;;;;;;4910347;29;20048;-75
2022/01/22 17:58:27;;;;;;;14.32;8.68;;;4.40;99.90;;;;;;4914979;29;20050;-74
2022/01/22 18:01:00;;;;;;;15.57;9.02;;;4.40;99.90;;;;;;4914849;29;20553;-77
2022/01/22 18:03:28;;;;;;;14.82;8.48;;;4.40;99.90;;;;;;4915702;29;20089;-78
2022/01/22 18:05:58;;;;;;;15.18;8.82;;;4.40;99.90;;;;;;4915703;29;20510;-75
2022/01/22 18:08:25;;;;;;;16.52;9.07;;;4.40;99.90;;;;;;4911924;29;20135;-74
2022/01/22 18:10:56;;;;;;;16.88;9.15;;;4.50;99.90;;;;;;4909776;29;20661;-75
2022/01/22 18:13:24;;;;;;;14.23;8.75;;;4.40;99.90;;;;;;4911637;29;20056;-75
2022/01/22 18:15:51;;;;;;;16.10;9.13;;;4.40;99.90;;;;;;4899648;29;20634;-75
2022/01/22 18:18:19;;;;;;;15.15;9.10;;;4.40;99.90;;;;;;4915328;29;20491;-75
2022/01/22 18:20:46;;;;;;;15.35;9.13;;;4.50;99.90;;;;;;4913596;29;20131;-75
2022/01/22 18:23:13;;;;;;;13.30;8.20;;;4.50;99.90;;;;;;4915816;29;20087;-76
2022/01/22 18:25:40;;;;;;;16.00;9.27;;;4.50;99.90;;;;;;4915459;29;20131;-77
2022/01/22 18:28:09;;;;;;;17.15;9.50;;;4.50;99.90;;;;;;4908420;29;20055;-75
2022/01/22 18:30:37;;;;;;;20.42;11.35;;;4.50;99.90;;;;;;4910715;29;20073;-75
2022/01/22 18:33:04;;;;;;;15.65;9.30;;;4.50;99.90;;;;;;4905340;29;20140;-76
2022/01/22 18:35:31;;;;;;;18.23;9.13;;;4.50;99.90;;;;;;4902735;29;20557;-75
2022/01/22 18:37:59;;;;;;;14.00;8.40;;;4.50;99.90;;;;;;4908536;29;20514;-77
2022/01/22 18:40:27;;;;;;;14.73;9.02;;;4.50;99.90;;;;;;4911882;29;20410;-75
2022/01/22 18:42:56;;;;;;;13.00;7.85;;;4.50;99.90;;;;;;4907028;29;20094;-76
2022/01/22 18:45:28;;;;;;;14.88;8.80;;;4.50;99.90;;;;;;4911780;29;20056;-79
2022/01/22 18:47:55;;;;;;;14.32;8.18;;;4.50;99.90;;;;;;4905800;29;20494;-77
2022/01/22 18:50:22;;;;;;;14.13;7.95;;;4.50;99.90;;;;;;4915367;29;20472;-77
2022/01/22 18:52:50;;;;;;;15.48;8.63;;;4.50;99.90;;;;;;4913347;29;20072;-76
2022/01/22 18:55:18;;;;;;;13.93;8.18;;;4.50;99.90;;;;;;4906811;29;20108;-80
2022/01/22 18:57:45;;;;;;;15.77;9.13;;;4.50;99.90;;;;;;4909302;29;20056;-78
2022/01/22 19:00:18;;;;;;;13.13;8.23;;;4.50;99.90;;;;;;4909105;29;20127;-78
2022/01/22 19:02:47;;;;;;;12.60;7.85;;;4.50;99.90;;;;;;4911767;29;20477;-79
2022/01/22 19:05:14;;;;;;;14.20;8.55;;;4.60;99.90;;;;;;4910159;29;20091;-79
2022/01/22 19:07:41;;;;;;;17.08;9.90;;;4.60;99.90;;;;;;4908648;29;20128;-75
2022/01/22 19:10:12;;;;;;;25.80;13.52;;;4.60;99.90;;;;;;4908713;29;20087;-77
2022/01/22 19:12:41;;;;;;;22.67;11.63;;;4.60;99.90;;;;;;4911454;29;20048;-75